Latest Weather Observations for Ferny Creek

IDV60901

Issued at 2:31 pm EDT Friday 27 March 2015 (issued every 10 minutes, with the page automatically refreshed every 10 minutes)

About weather observations | Map of Melbourne area stations | Latest observations for Melbourne area | Other Formats
Station Details ID: 086266 Name: FERNY CREEK Lat: -37.87 Lon: 145.35 Height: 512.9 m
Data from the previous 72 hours. | See also: Recent months at Ferny Creek
Date/Time
EDT
Tmp

°C
App
Tmp
°C
Dew
Point
°C
Rel
Hum
%
Delta-T

°C
Wind Press
QNH
hPa
Press
MSL
hPa
Rain
since
9 am
mm
Dir
 
Spd
km/h
Gust
km/h
Spd
kts
Gust
kts
27/02:30pm 11.2 9.3 7.5 78 1.8 W 7 19 4 10 1023.2 1022.1 1.4
27/02:00pm 11.1 9.7 9.0 87 1.1 W 6 15 3 8 1023.3 1022.2 1.4
27/01:30pm 10.0 7.9 8.3 89 0.9 WSW 9 17 5 9 1023.4 1022.3 1.4
27/01:00pm 10.1 8.5 8.7 91 0.7 W 7 15 4 8 1023.3 1022.2 1.4
27/12:30pm 9.8 8.8 8.7 93 0.6 W 4 13 2 7 1023.5 1022.4 1.4
27/12:00pm 9.8 8.4 8.7 93 0.6 W 6 13 3 7 1023.5 1022.4 1.0
27/11:30am 9.6 8.1 8.5 93 0.6 W 6 15 3 8 1023.1 1022.0 0.8
27/11:00am 9.5 8.0 8.4 93 0.5 W 6 20 3 11 1023.1 1022.0 0.6
27/10:30am 9.3 7.8 8.5 95 0.4 W 6 13 3 7 1022.9 1021.9 0.6
27/10:00am 9.0 7.4 8.1 94 0.4 W 6 11 3 6 1022.5 1021.5 0.6
27/09:30am 9.3 7.8 8.4 94 0.4 W 6 11 3 6 1022.3 1021.2 0.0
27/09:00am 9.3 7.6 8.2 93 0.5 W 7 22 4 12 1021.8 1020.7 1.4
27/08:30am 9.1 7.3 8.0 93 0.5 W 7 15 4 8 1021.5 1020.4 1.4
27/08:00am 9.1 7.5 8.0 93 0.5 W 6 9 3 5 1021.1 1020.0 1.4
27/07:30am 9.1 7.9 8.0 93 0.5 W 4 13 2 7 1020.6 1019.5 1.4
27/07:00am 9.1 7.5 8.2 94 0.4 WNW 6 19 3 10 1020.1 1019.0 1.4
27/06:30am 9.0 7.4 8.1 94 0.4 WNW 6 17 3 9 1020.0 1018.9 1.4
27/06:00am 9.1 7.9 8.2 94 0.4 WSW 4 9 2 5 1019.6 1018.5 1.4
27/05:30am 9.1 7.9 8.0 93 0.5 W 4 11 2 6 1019.4 1018.3 1.4
27/05:00am 9.1 7.9 7.9 92 0.6 W 4 11 2 6 1019.2 1018.1 1.4
27/04:30am 9.2 8.0 8.1 93 0.5 W 4 11 2 6 1019.2 1018.1 1.4
27/04:00am 9.2 8.0 8.0 92 0.6 W 4 9 2 5 1019.1 1017.9 1.4
27/03:30am 9.3 8.1 8.2 93 0.5 WNW 4 9 2 5 1019.0 1017.8 1.4
27/03:00am 9.3 7.7 8.2 93 0.5 W 6 17 3 9 1018.9 1017.7 1.4
27/02:30am 9.4 7.8 8.0 91 0.7 W 6 20 3 11 1018.6 1017.5 1.4
27/02:00am 9.4 7.7 7.7 89 0.8 WNW 6 9 3 5 1018.5 1017.4 1.4
27/01:30am 9.4 8.1 7.7 89 0.8 W 4 11 2 6 1018.6 1017.5 1.4
27/01:00am 9.6 8.0 7.9 89 0.8 WNW 6 24 3 13 1018.7 1017.6 1.4
27/12:30am 9.6 7.9 7.7 88 0.9 WNW 6 19 3 10 1018.5 1017.4 1.4
27/12:00am 9.6 8.3 7.5 87 1.0 WNW 4 9 2 5 1018.5 1017.4 1.4
 
Date/Time
EDT
Tmp

°C
App
Tmp
°C
Dew
Point
°C
Rel
Hum
%
Delta-T

°C
Wind Press
QNH
hPa
Press
MSL
hPa
Rain
since
9 am
mm
Dir
 
Spd
km/h
Gust
km/h
Spd
kts
Gust
kts
26/11:30pm 9.6 7.9 7.4 86 1.1 WNW 6 15 3 8 1018.3 1017.2 1.4
26/11:00pm 9.6 8.2 7.4 86 1.1 W 4 11 2 6 1018.2 1017.1 1.4
26/10:30pm 9.6 7.8 7.2 85 1.2 W 6 17 3 9 1018.3 1017.2 1.4
26/10:00pm 9.6 7.8 7.2 85 1.2 W 6 22 3 12 1018.0 1016.9 1.4
26/09:30pm 9.7 7.6 6.8 82 1.4 W 7 17 4 9 1017.9 1016.8 1.4
26/09:00pm 9.5 7.0 6.6 82 1.4 W 9 20 5 11 1017.3 1016.1 1.4
26/08:30pm 9.8 6.8 6.0 77 1.8 NW 11 33 6 18 1017.2 1016.0 1.4
26/08:00pm 9.4 7.2 6.1 80 1.6 WNW 7 20 4 11 1017.0 1015.8 1.4
26/07:30pm 8.8 6.3 6.6 86 1.1 WNW 9 24 5 13 1016.9 1015.7 1.2
26/07:00pm 9.6 7.3 5.8 77 1.8 NNW 7 24 4 13 1016.5 1015.4 0.8
26/06:30pm 9.2 7.0 5.2 76 1.9 SE 6 24 3 13 1016.5 1015.4 0.6
26/06:00pm 9.6 6.6 4.2 69 2.5 NNW 9 19 5 10 1015.8 1014.7 0.2
26/05:30pm 10.5 7.3 2.8 59 3.4 NNW 9 33 5 18 1016.1 1015.0 0.2
26/05:00pm 11.4 7.5 1.1 49 4.4 NW 11 24 6 13 1015.6 1014.4 0.0
26/04:30pm 11.6 8.4 1.0 48 4.6 NNW 7 15 4 8 1015.8 1014.7 0.0
26/04:00pm 11.6 7.2 0.4 46 4.8 NW 13 22 7 12 1016.3 1015.2 0.0
26/03:30pm 11.7 8.2 1.1 48 4.6 NW 9 22 5 12 1016.3 1015.2 0.0
26/03:00pm 11.7 8.1 0.8 47 4.7 NW 9 32 5 17 1016.7 1015.6 0.0
26/02:30pm 12.9 9.6 2.5 49 4.7 NW 9 28 5 15 1017.1 1015.9 0.0
26/02:00pm 11.6 8.4 2.9 55 3.9 NNW 9 20 5 11 1017.3 1016.1 0.0
26/01:30pm 11.2 8.2 2.2 54 4.0 NNW 7 19 4 10 1017.3 1016.1 0.0
26/01:00pm 11.3 8.3 1.8 52 4.2 NNW 7 20 4 11 1017.5 1016.4 0.0
26/12:30pm 10.4 7.8 3.2 61 3.2 W 6 15 3 8 1017.8 1016.7 0.0
26/12:00pm 9.9 7.7 3.6 65 2.8 WNW 4 9 2 5 1017.9 1016.8 0.0
26/11:30am 9.4 7.1 4.6 72 2.2 NW 6 20 3 11 1017.9 1016.8 0.0
26/11:00am 9.2 5.9 4.6 73 2.1 NW 11 19 6 10 1017.9 1016.8 0.0
26/10:30am 8.5 6.0 4.7 77 1.7 NNW 7 19 4 10 1017.8 1016.7 0.0
26/10:00am 8.1 5.6 5.0 81 1.4 NW 7 19 4 10 1017.8 1016.7 0.0
26/09:30am 7.1 5.4 5.7 91 0.6 NW 4 9 2 5 1017.6 1016.5 0.0
26/09:00am 6.1 3.8 4.9 92 0.5 W 6 13 3 7 1017.5 1016.4 1.6
26/08:30am 5.8 4.3 4.8 93 0.4 WNW 2 9 1 5 1017.2 1016.0 1.6
26/08:00am 5.6 4.0 4.7 94 0.4 WNW 2 7 1 4 1016.9 1015.7 1.6
26/07:30am 5.4 3.4 4.5 94 0.4 WNW 4 9 2 5 1016.3 1015.2 1.6
26/07:00am 5.5 3.5 4.6 94 0.4 WNW 4 13 2 7 1016.0 1014.9 1.6
26/06:30am 5.6 3.7 4.9 95 0.3 NW 4 9 2 5 1015.7 1014.5 1.4
26/06:00am 6.0 4.2 5.3 95 0.3 NW 4 11 2 6 1015.4 1014.2 1.4
26/05:30am 6.0 4.2 5.3 95 0.3 NW 4 7 2 4 1015.3 1014.1 1.4
26/05:00am 6.1 3.7 5.1 93 0.5 NW 7 15 4 8 1015.3 1014.1 1.0
26/04:30am 6.9 5.0 4.9 87 0.9 WNW 4 13 2 7 1015.2 1014.0 0.2
26/04:00am 7.4 4.7 3.8 78 1.6 NW 7 19 4 10 1015.0 1013.8 0.0
26/03:30am 7.4 5.3 4.0 79 1.5 WNW 4 11 2 6 1015.0 1013.8 0.0
26/03:00am 7.5 5.9 4.6 82 1.3 WNW 2 6 1 3 1015.4 1014.2 0.0
26/02:30am 7.4 5.1 4.9 84 1.1 WSW 6 9 3 5 1015.6 1014.4 0.0
26/02:00am 8.0 5.7 4.8 80 1.5 W 6 17 3 9 1015.7 1014.5 0.0
26/01:30am 11.1 7.8 2.7 56 3.7 W 9 19 5 10 1015.3 1014.1 0.0
26/01:00am 11.8 9.0 2.0 51 4.3 NNW 6 15 3 8 1014.5 1013.4 0.0
26/12:30am 11.0 8.2 1.8 53 4.0 NNW 6 15 3 8 1014.5 1013.4 0.0
26/12:00am 11.0 8.6 2.3 55 3.8 NNW 4 7 2 4 1014.8 1013.6 0.0
 
Date/Time
EDT
Tmp

°C
App
Tmp
°C
Dew
Point
°C
Rel
Hum
%
Delta-T

°C
Wind Press
QNH
hPa
Press
MSL
hPa
Rain
since
9 am
mm
Dir
 
Spd
km/h
Gust
km/h
Spd
kts
Gust
kts
25/11:30pm 10.8 8.9 4.7 66 2.8 NNW 4 9 2 5 1014.9 1013.7 0.0
25/11:00pm 10.1 9.6 7.7 85 1.2 CALM 0 9 0 5 1015.1 1013.9 0.0
25/10:30pm 10.4 10.0 8.2 86 1.1 CALM 0 0 0 0 1015.4 1014.2 0.0
25/10:00pm 11.5 10.4 8.4 81 1.6 WNW 4 13 2 7 1015.2 1014.0 0.0
25/09:30pm 10.1 9.7 8.2 88 0.9 CALM 0 0 0 0 1014.6 1013.5 0.0
25/09:00pm 10.2 9.8 8.1 87 1.0 CALM 0 0 0 0 1014.5 1013.4 0.0
25/08:30pm 10.8 10.0 8.2 84 1.3 SW 2 4 1 2 1014.5 1013.4 0.0
25/08:00pm 11.3 10.9 8.3 82 1.5 CALM 0 2 0 1 1014.2 1013.1 0.0
25/07:30pm 12.3 11.6 8.6 78 1.9 SSW 2 4 1 2 1014.1 1013.0 0.0
25/07:00pm 13.4 13.3 9.3 76 2.1 CALM 0 0 0 0 1013.8 1012.6 0.0
25/06:30pm 14.9 14.9 9.9 72 2.7 CALM 0 0 0 0 1013.7 1012.5 0.0
25/06:00pm 14.8 13.9 9.4 70 2.9 SSW 4 6 2 3 1013.7 1012.5 0.0
25/05:30pm 14.9 14.5 9.7 71 2.8 WSW 2 7 1 4 1013.9 1012.7 0.0
25/05:00pm 16.3 15.3 8.8 61 4.0 NNE 4 6 2 3 1013.8 1012.6 0.0
25/04:30pm 16.5 15.3 8.2 58 4.3 NNE 4 9 2 5 1014.0 1012.8 0.0
25/04:00pm 17.1 16.1 9.0 59 4.3 NNW 4 11 2 6 1014.1 1013.0 0.0
25/03:30pm 17.0 16.1 9.2 60 4.2 N 4 11 2 6 1014.5 1013.4 0.0
25/03:00pm 16.0 14.8 9.4 65 3.5 NE 6 9 3 5 1015.0 1013.8 0.0
25/02:30pm 15.2 14.2 8.7 65 3.4 NNW 4 7 2 4 1015.4 1014.2 0.0
25/02:00pm 15.0 14.1 9.1 68 3.1 N 4 7 2 4 1016.0 1014.9 0.0
25/01:30pm 14.9 14.5 9.9 72 2.7 ENE 2 6 1 3 1016.3 1015.2 0.0
25/01:00pm 14.0 12.6 9.0 72 2.6 WNW 6 11 3 6 1016.9 1015.7 0.0
25/12:30pm 13.7 12.6 8.5 71 2.7 N 4 7 2 4 1017.1 1015.9 0.0
25/12:00pm 12.9 11.4 9.2 78 1.9 ENE 7 11 4 6 1017.4 1016.2 0.0
25/11:30am 12.4 11.3 8.5 77 2.0 E 4 7 2 4 1017.8 1016.7 0.0
25/11:00am 11.3 10.5 6.6 73 2.3 CALM 0 2 0 1 1018.3 1017.2 0.0
25/10:30am 11.0 10.1 7.9 81 1.5 ENE 2 4 1 2 1018.4 1017.3 0.0
25/10:00am 10.8 10.4 8.4 85 1.2 CALM 0 4 0 2 1018.7 1017.6 0.0
25/09:30am 10.1 8.4 7.7 85 1.2 ENE 6 7 3 4 1018.3 1017.2 0.0
25/09:00am 9.1 7.7 7.2 88 0.9 ENE 4 7 2 4 1018.4 1017.3 7.2
25/08:30am 8.9 8.3 7.4 90 0.7 CALM 0 2 0 1 1018.7 1017.6 7.2
25/08:00am 8.7 8.1 7.2 90 0.7 CALM 0 0 0 0 1018.7 1017.6 7.2
25/07:30am 8.6 7.6 7.2 91 0.7 ESE 2 4 1 2 1018.2 1017.1 7.2
25/07:00am 8.5 7.3 6.3 86 1.0 SE 2 6 1 3 1017.9 1016.8 7.2
25/06:30am 8.4 7.2 6.5 88 0.9 SSW 2 6 1 3 1018.0 1016.9 7.2
25/06:00am 8.4 6.8 6.5 88 0.9 SW 4 9 2 5 1017.9 1016.8 7.2
25/05:30am 8.5 7.1 7.1 91 0.7 WSW 4 9 2 5 1017.8 1016.7 7.2
25/05:00am 8.4 7.0 7.2 92 0.6 SW 4 9 2 5 1017.8 1016.7 7.2
25/04:30am 8.6 6.9 7.5 93 0.5 WSW 6 11 3 6 1017.9 1016.8 7.2
25/04:00am 8.5 7.6 7.6 94 0.4 WSW 2 4 1 2 1018.1 1017.0 7.2
25/03:30am 8.5 7.9 7.6 94 0.4 CALM 0 0 0 0 1018.4 1017.3 7.2
25/03:00am 8.4 7.5 7.6 95 0.4 SE 2 6 1 3 1018.3 1017.2 7.2
25/02:30am 8.4 7.9 7.8 96 0.3 CALM 0 4 0 2 1018.7 1017.6 7.2
25/02:00am 8.4 7.1 7.8 96 0.3 E 4 6 2 3 1018.7 1017.6 7.2
25/01:30am 8.4 7.1 7.6 95 0.4 E 4 7 2 4 1018.7 1017.6 7.2
25/01:00am 8.4 7.1 7.6 95 0.4 E 4 6 2 3 1018.9 1017.7 7.2
25/12:30am 8.3 7.0 7.5 95 0.4 ESE 4 7 2 4 1019.3 1018.2 7.2
25/12:00am 8.2 6.8 7.4 95 0.4 ESE 4 6 2 3 1019.8 1018.7 7.2
 
Date/Time
EDT
Tmp

°C
App
Tmp
°C
Dew
Point
°C
Rel
Hum
%
Delta-T

°C
Wind Press
QNH
hPa
Press
MSL
hPa
Rain
since
9 am
mm
Dir
 
Spd
km/h
Gust
km/h
Spd
kts
Gust
kts
24/11:30pm 8.3 6.6 7.5 95 0.4 ESE 6 9 3 5 1019.7 1018.6 7.0
24/11:00pm 8.4 6.7 7.6 95 0.4 E 6 9 3 5 1019.8 1018.7 7.0
24/10:30pm 8.4 6.7 7.6 95 0.4 SE 6 11 3 6 1020.0 1018.9 7.0
24/10:00pm 8.4 6.7 7.6 95 0.4 ESE 6 13 3 7 1019.8 1018.7 7.0
24/09:30pm 8.6 7.0 8.0 96 0.3 ESE 6 13 3 7 1020.0 1018.9 7.0
24/09:00pm 8.7 7.5 7.9 95 0.4 SE 4 13 2 7 1019.8 1018.7 6.8
24/08:30pm 8.5 7.2 7.7 95 0.4 SE 4 15 2 8 1019.4 1018.3 6.4
24/08:00pm 8.3 7.0 7.7 96 0.3 SSE 4 13 2 7 1019.4 1018.3 6.4
24/07:30pm 8.3 6.6 7.7 96 0.3 SSW 6 11 3 6 1019.2 1018.1 6.4
24/07:00pm 8.5 6.9 8.1 97 0.2 S 6 19 3 10 1018.9 1017.7 6.0
24/06:30pm 8.6 6.9 8.2 97 0.2 S 7 19 4 10 1018.4 1017.3 5.4
24/06:00pm 8.8 7.2 8.2 96 0.3 S 6 15 3 8 1018.0 1016.9 5.0
24/05:30pm 8.8 6.7 8.2 96 0.3 SW 9 30 5 16 1017.7 1016.6 4.6
24/05:00pm 9.0 7.3 8.4 96 0.3 SSW 7 19 4 10 1017.6 1016.5 3.8
24/04:30pm 9.0 7.3 8.4 96 0.3 SW 7 15 4 8 1017.5 1016.4 3.2
24/04:00pm 9.0 6.9 8.4 96 0.3 SSW 9 24 5 13 1017.6 1016.5 2.4
24/03:30pm 8.9 6.8 8.1 95 0.4 SW 9 24 5 13 1017.4 1016.2 2.0
24/03:00pm 9.4 7.7 8.5 94 0.4 SW 7 19 4 10 1017.4 1016.2 1.2

Latest Capital City Observations: Canberra | Sydney | Melbourne | Brisbane | Adelaide | Perth | Hobart | Darwin

Other Formats:

Comma delimited format used in spreadsheet applications
http://www.bom.gov.au/fwo/IDV60901/IDV60901.94872.axf

JavaScript Object Notation format (JSON) in row-major order
http://www.bom.gov.au/fwo/IDV60901/IDV60901.94872.json